Flight Track Log - Related Links

Times and Time Zones

All times are in EDT time to prevent confusion due to time zone crossing. See the N618JB flight status page for this flight to view local times or setup timezone preferences in your user account.

Time Position Orientation Groundspeed Altitude Reporting Facility
EDT Latitude Longitude Course Direction KTS MPH feet Rate Location/Type
Tue 10:04:41 AM 33.8431 -118.1828 289° West 155 178 1,800  Level Los Angeles Center
Tue 10:05:43 AM 33.8458 -118.2544 273° West 228 262 3,800 2,049 Climbing Los Angeles Center
Tue 10:06:44 AM 33.8347 -118.3300 260° West 232 267 6,000 1,415 Climbing Los Angeles Center
Tue 10:07:00 AM 33.9381 -118.5476 292° West  Level FlightAware Approximate
Tue 10:07:46 AM 33.8186 -118.4286 259° West 257 296 6,700  Level Los Angeles Center
Tue 10:08:00 AM 33.9802 -118.6406 292° West  Level FlightAware Approximate
Tue 10:08:47 AM 33.8047 -118.5139 259° West 261 300 9,100  Level Los Angeles Center
Tue 10:09:00 AM 34.0138 -118.7412 292° West  Level FlightAware Approximate
Tue 10:09:49 AM 33.7892 -118.5969 257° West 261 300 11,600  Level Los Angeles Center
Tue 10:10:00 AM 34.0485 -118.8532 289° West  Level FlightAware Approximate
Tue 10:10:51 AM 33.7725 -118.7006 259° West 316 364 13,800  Level Los Angeles Center
Tue 10:11:52 AM 33.7556 -118.8058 259° West 323 372 16,500 2,488 Climbing Los Angeles Center
Tue 10:12:54 AM 33.7928 -118.9056 294° West 340 391 18,900 2,439 Climbing Los Angeles Center
Tue 10:13:55 AM 33.8764 -119.0042 316° Northwest 351 404 21,500 2,195 Climbing Los Angeles Center
Tue 10:14:57 AM 33.9475 -119.0908 315° West 362 417 23,400 1,742 Climbing Los Angeles Center
Tue 10:15:59 AM 34.0197 -119.1792 315° West 366 421 25,100 1,610 Climbing Los Angeles Center
Tue 10:17:00 AM 34.0942 -119.2669 316° Northwest 373 429 26,700 1,463 Climbing Los Angeles Center
Tue 10:18:02 AM 34.1692 -119.3592 315° West 382 440 28,100 1,355 Climbing Los Angeles Center
Tue 10:19:04 AM 34.2469 -119.4503 316° Northwest 387 445 29,500 1,366 Climbing Los Angeles Center
Tue 10:20:05 AM 34.3236 -119.5461 314° West 394 453 30,900 1,220 Climbing Los Angeles Center
Tue 10:21:07 AM 34.4014 -119.6394 315° West 395 455 32,000 1,500 Climbing Los Angeles Center
Tue 10:22:09 AM 34.4931 -119.7517 315° West 393 452 34,000 1,378 Climbing Los Angeles Center
Tue 10:23:22 AM 34.5706 -119.8408 317° Northwest 386 444 35,100 889 Climbing Los Angeles Center
Tue 10:24:24 AM 34.6656 -119.9425 319° Northwest 390 449 36,000 435 Climbing Los Angeles Center
Tue 10:25:26 AM 34.7453 -120.0283 319° Northwest 385 443 36,000  Level Los Angeles Center
Tue 10:26:28 AM 34.8283 -120.1206 318° Northwest 387 445 36,000  Level Los Angeles Center
Tue 10:27:30 AM 34.9089 -120.2081 318° Northwest 390 449 36,000  Level Los Angeles Center
Tue 10:28:31 AM 34.9889 -120.2961 318° Northwest 390 449 36,000  Level Los Angeles Center
Tue 10:29:33 AM 35.0844 -120.4025 318° Northwest 390 449 36,000  Level Los Angeles Center
Tue 10:30:35 AM 35.1631 -120.4883 318° Northwest 386 444 36,000  Level Los Angeles Center
Tue 10:31:37 AM 35.2417 -120.5758 318° Northwest 384 442 36,000  Level Los Angeles Center
Tue 10:32:39 AM 35.3203 -120.6633 318° Northwest 383 441 36,000  Level Los Angeles Center
Tue 10:33:40 AM 35.3972 -120.7506 317° Northwest 380 437 36,000  Level Los Angeles Center
Tue 10:34:01 AM 35.4325 -120.7900 318° Northwest 376 433 36,000  Level Oakland Center
Tue 10:35:03 AM 35.5119 -120.8731 320° Northwest 373 429 36,000  Level Oakland Center
Tue 10:36:04 AM 35.5978 -120.9461 325° Northwest 374 430 36,000 -49 Level Oakland Center
Tue 10:37:05 AM 35.6817 -121.0194 325° Northwest 371 427 35,900  Descending Oakland Center
Tue 10:38:06 AM 35.7669 -121.0942 325° Northwest 373 429 36,000 49 Climbing Oakland Center
Tue 10:39:07 AM 35.8531 -121.1694 325° Northwest 378 435 36,000  Level Oakland Center
Tue 10:40:09 AM 35.9392 -121.2453 325° Northwest 379 436 36,000 -585 Level Oakland Center
Tue 10:41:10 AM 36.0244 -121.3197 325° Northwest 376 433 34,800 -1,721 Descending Oakland Center
Tue 10:42:11 AM 36.1228 -121.4072 324° Northwest 362 417 32,500 -2,115 Descending Oakland Center
Tue 10:43:12 AM 36.2036 -121.4817 323° Northwest 362 417 30,500 -1,869 Descending Oakland Center
Tue 10:44:13 AM 36.2836 -121.5536 324° Northwest 357 411 28,700 -1,770 Descending Oakland Center
Tue 10:45:14 AM 36.3603 -121.6172 326° Northwest 335 386 26,900 -1,756 Descending Oakland Center
Tue 10:46:16 AM 36.4314 -121.6842 323° Northwest 324 373 25,100 -1,810 Descending Oakland Center
Tue 10:47:20 AM 36.5167 -121.7500 328° Northwest 317 365 23,100 -1,881 Descending Northern Cal TRACON
Tue 10:48:14 AM 36.5667 -121.8167 313° West 318 366 21,400 -1,889 Descending Northern Cal TRACON
Tue 10:49:08 AM 36.6333 -121.8667 329° Northwest 334 384 19,700 -1,789 Descending Northern Cal TRACON
Tue 10:50:08 AM 36.7000 -121.9333 321° Northwest 297 342 18,000 -1,600 Descending Northern Cal TRACON
Tue 10:51:08 AM 36.7667 -121.9667 338° Northwest 278 320 16,500 -1,650 Descending Northern Cal TRACON
Tue 10:52:08 AM 36.8500 -122.0000 342° North 288 331 14,700 -1,750 Descending Northern Cal TRACON
Tue 10:53:08 AM 36.9333 -122.0167 351° North 289 333 13,000 -1,600 Descending Northern Cal TRACON
Tue 10:53:23 AM 36.9369 -122.0147 23° Northeast 289 333 12,700 -1,558 Descending Oakland Center
Tue 10:54:25 AM 37.0158 -122.0344 349° North 288 331 11,000 -1,317 Descending Oakland Center
Tue 10:55:26 AM 37.0928 -122.0569 347° North 283 326 10,000 -885 Descending Oakland Center
Tue 10:56:27 AM 37.1628 -122.0717 350° North 257 296 9,200 -984 Descending Oakland Center
Tue 10:57:28 AM 37.2208 -122.1136 330° Northwest 248 285 8,000 -1,082 Descending Oakland Center
Tue 10:58:29 AM 37.3017 -122.1264 353° North 242 278 7,000 -1,033 Descending Oakland Center
Tue 10:59:30 AM 37.3700 -122.1367 353° North 246 283 5,900 -787 Descending Oakland Center
Tue 11:00:31 AM 37.4344 -122.1483 352° North 237 273 5,400 -541 Descending Oakland Center
Tue 11:01:32 AM 37.4883 -122.1578 352° North 205 236 4,800 -787 Descending Oakland Center
Tue 11:02:33 AM 37.5308 -122.1761 341° North 173 199 3,800 -1,131 Descending Oakland Center
Tue 11:03:34 AM 37.5525 -122.2236 300° West 157 181 2,500 -1,082 Descending Oakland Center
Tue 11:04:35 AM 37.5708 -122.2642 300° West 145 167 1,600 -689 Descending Oakland Center
Tue 11:05:36 AM 37.5881 -122.3058 298° West 138 159 1,100 -634 Descending Oakland Center
Tue 11:06:38 AM 37.6044 -122.3453 298° West 133 153 300 -774 Descending Oakland Center
Tue 11:08:00 AM 37.6167 -122.3667 322° Northwest  Level FlightAware Approximate
Tue 11:15:00 AM 37.6191 -122.3752 322° Northwest  Level Estimated

Login

Don't have an account? Register now (free) for customized features, flight alerts, and more!